sensor_id;sensor_type;location;lat;lon;timestamp;P1;durP1;ratioP1;P2;durP2;ratioP2
71353;SDS011;59393;51.652;4.864;2022-09-27T00:02:21;2.10;;;0.40;;
71353;SDS011;59393;51.652;4.864;2022-09-27T00:08:27;1.70;;;0.30;;
71353;SDS011;59393;51.652;4.864;2022-09-27T00:14:09;2.10;;;0.40;;
71353;SDS011;59393;51.652;4.864;2022-09-27T00:16:57;4.68;;;0.30;;
71353;SDS011;59393;51.652;4.864;2022-09-27T00:19:35;4.25;;;0.65;;
71353;SDS011;59393;51.652;4.864;2022-09-27T00:22:10;3.53;;;0.50;;
71353;SDS011;59393;51.652;4.864;2022-09-27T00:24:36;4.67;;;0.47;;
71353;SDS011;59393;51.652;4.864;2022-09-27T00:27:02;2.35;;;0.52;;
71353;SDS011;59393;51.652;4.864;2022-09-27T00:29:28;3.08;;;0.35;;
71353;SDS011;59393;51.652;4.864;2022-09-27T00:31:54;2.05;;;0.35;;
71353;SDS011;59393;51.652;4.864;2022-09-27T00:34:22;3.53;;;0.70;;
71353;SDS011;59393;51.652;4.864;2022-09-27T00:36:49;1.63;;;0.40;;
71353;SDS011;59393;51.652;4.864;2022-09-27T00:39:15;3.95;;;0.57;;
71353;SDS011;59393;51.652;4.864;2022-09-27T00:41:47;7.15;;;0.60;;
71353;SDS011;59393;51.652;4.864;2022-09-27T00:49:29;1.73;;;0.60;;
71353;SDS011;59393;51.652;4.864;2022-09-27T00:51:58;2.45;;;0.50;;
71353;SDS011;59393;51.652;4.864;2022-09-27T00:54:32;3.20;;;0.52;;
71353;SDS011;59393;51.652;4.864;2022-09-27T00:56:59;5.53;;;0.60;;
71353;SDS011;59393;51.652;4.864;2022-09-27T00:59:36;1.83;;;0.50;;
71353;SDS011;59393;51.652;4.864;2022-09-27T01:02:04;6.07;;;0.70;;
71353;SDS011;59393;51.652;4.864;2022-09-27T01:04:30;3.40;;;0.52;;
71353;SDS011;59393;51.652;4.864;2022-09-27T01:06:57;2.75;;;0.40;;
71353;SDS011;59393;51.652;4.864;2022-09-27T01:09:24;4.65;;;0.70;;
71353;SDS011;59393;51.652;4.864;2022-09-27T01:11:56;5.20;;;0.57;;
71353;SDS011;59393;51.652;4.864;2022-09-27T01:14:32;2.50;;;0.40;;
71353;SDS011;59393;51.652;4.864;2022-09-27T01:22:38;2.55;;;0.60;;
71353;SDS011;59393;51.652;4.864;2022-09-27T01:28:43;5.93;;;0.63;;
71353;SDS011;59393;51.652;4.864;2022-09-27T01:45:12;4.25;;;0.68;;
71353;SDS011;59393;51.652;4.864;2022-09-27T01:50:08;6.60;;;0.88;;
71353;SDS011;59393;51.652;4.864;2022-09-27T01:55:32;8.20;;;0.83;;
71353;SDS011;59393;51.652;4.864;2022-09-27T01:58:09;8.77;;;0.73;;
71353;SDS011;59393;51.652;4.864;2022-09-27T02:00:37;5.13;;;0.65;;
71353;SDS011;59393;51.652;4.864;2022-09-27T02:03:06;9.23;;;0.60;;
71353;SDS011;59393;51.652;4.864;2022-09-27T02:05:38;8.15;;;1.35;;
71353;SDS011;59393;51.652;4.864;2022-09-27T02:08:06;11.00;;;0.97;;
71353;SDS011;59393;51.652;4.864;2022-09-27T02:10:44;7.05;;;0.82;;
71353;SDS011;59393;51.652;4.864;2022-09-27T02:13:24;5.30;;;0.90;;
71353;SDS011;59393;51.652;4.864;2022-09-27T02:15:53;4.57;;;0.70;;
71353;SDS011;59393;51.652;4.864;2022-09-27T02:18:33;2.45;;;0.60;;
71353;SDS011;59393;51.652;4.864;2022-09-27T02:21:00;7.97;;;0.90;;
71353;SDS011;59393;51.652;4.864;2022-09-27T02:26:11;11.13;;;1.00;;
71353;SDS011;59393;51.652;4.864;2022-09-27T02:28:49;5.68;;;0.70;;
71353;SDS011;59393;51.652;4.864;2022-09-27T02:31:18;7.30;;;0.75;;
71353;SDS011;59393;51.652;4.864;2022-09-27T02:33:49;3.50;;;0.60;;
71353;SDS011;59393;51.652;4.864;2022-09-27T02:36:17;7.97;;;0.90;;
71353;SDS011;59393;51.652;4.864;2022-09-27T02:38:54;6.85;;;0.50;;
71353;SDS011;59393;51.652;4.864;2022-09-27T02:41:27;7.47;;;0.52;;
71353;SDS011;59393;51.652;4.864;2022-09-27T02:43:56;4.82;;;0.70;;
71353;SDS011;59393;51.652;4.864;2022-09-27T02:54:11;6.82;;;0.55;;
71353;SDS011;59393;51.652;4.864;2022-09-27T03:04:58;6.32;;;0.63;;
71353;SDS011;59393;51.652;4.864;2022-09-27T03:07:26;2.95;;;0.90;;
71353;SDS011;59393;51.652;4.864;2022-09-27T03:10:17;9.23;;;0.80;;
71353;SDS011;59393;51.652;4.864;2022-09-27T03:12:44;1.45;;;0.32;;
71353;SDS011;59393;51.652;4.864;2022-09-27T03:15:15;5.60;;;0.70;;
71353;SDS011;59393;51.652;4.864;2022-09-27T03:17:41;8.98;;;0.80;;
71353;SDS011;59393;51.652;4.864;2022-09-27T03:20:12;5.63;;;0.50;;
71353;SDS011;59393;51.652;4.864;2022-09-27T03:22:38;6.55;;;0.70;;
71353;SDS011;59393;51.652;4.864;2022-09-27T03:25:23;3.23;;;0.50;;
71353;SDS011;59393;51.652;4.864;2022-09-27T03:33:58;4.88;;;0.52;;
71353;SDS011;59393;51.652;4.864;2022-09-27T03:36:31;2.55;;;0.45;;
71353;SDS011;59393;51.652;4.864;2022-09-27T03:38:58;5.53;;;0.75;;
71353;SDS011;59393;51.652;4.864;2022-09-27T03:41:27;6.38;;;0.75;;
71353;SDS011;59393;51.652;4.864;2022-09-27T03:43:53;6.60;;;0.68;;
71353;SDS011;59393;51.652;4.864;2022-09-27T03:46:23;5.00;;;0.50;;
71353;SDS011;59393;51.652;4.864;2022-09-27T03:48:50;4.75;;;0.40;;
71353;SDS011;59393;51.652;4.864;2022-09-27T03:51:22;3.67;;;0.65;;
71353;SDS011;59393;51.652;4.864;2022-09-27T03:53:48;4.50;;;0.40;;
71353;SDS011;59393;51.652;4.864;2022-09-27T03:56:14;1.08;;;0.50;;
71353;SDS011;59393;51.652;4.864;2022-09-27T03:58:40;6.43;;;0.40;;
71353;SDS011;59393;51.652;4.864;2022-09-27T04:01:06;4.97;;;0.40;;
71353;SDS011;59393;51.652;4.864;2022-09-27T04:03:34;4.75;;;0.75;;
71353;SDS011;59393;51.652;4.864;2022-09-27T04:06:02;4.03;;;0.40;;
71353;SDS011;59393;51.652;4.864;2022-09-27T04:08:28;0.77;;;0.30;;
71353;SDS011;59393;51.652;4.864;2022-09-27T04:10:55;4.03;;;0.30;;
71353;SDS011;59393;51.652;4.864;2022-09-27T04:13:35;1.13;;;0.30;;
71353;SDS011;59393;51.652;4.864;2022-09-27T04:26:25;1.55;;;0.30;;
71353;SDS011;59393;51.652;4.864;2022-09-27T04:29:20;2.03;;;0.60;;
71353;SDS011;59393;51.652;4.864;2022-09-27T04:32:25;3.55;;;0.38;;
71353;SDS011;59393;51.652;4.864;2022-09-27T04:35:20;3.03;;;0.50;;
71353;SDS011;59393;51.652;4.864;2022-09-27T04:38:06;3.80;;;0.45;;
71353;SDS011;59393;51.652;4.864;2022-09-27T04:40:38;1.92;;;0.57;;
71353;SDS011;59393;51.652;4.864;2022-09-27T04:43:16;5.45;;;0.50;;
71353;SDS011;59393;51.652;4.864;2022-09-27T04:45:45;1.02;;;0.35;;
71353;SDS011;59393;51.652;4.864;2022-09-27T04:48:27;3.85;;;0.40;;
71353;SDS011;59393;51.652;4.864;2022-09-27T05:11:40;3.92;;;0.47;;
71353;SDS011;59393;51.652;4.864;2022-09-27T05:14:16;6.32;;;0.50;;
71353;SDS011;59393;51.652;4.864;2022-09-27T05:19:52;3.63;;;0.40;;
71353;SDS011;59393;51.652;4.864;2022-09-27T05:25:37;2.65;;;0.50;;
71353;SDS011;59393;51.652;4.864;2022-09-27T05:28:22;3.40;;;0.65;;
71353;SDS011;59393;51.652;4.864;2022-09-27T05:30:57;4.70;;;0.60;;
71353;SDS011;59393;51.652;4.864;2022-09-27T05:43:14;1.55;;;0.50;;
71353;SDS011;59393;51.652;4.864;2022-09-27T05:57:24;1.80;;;0.55;;
71353;SDS011;59393;51.652;4.864;2022-09-27T06:00:06;2.25;;;0.40;;
71353;SDS011;59393;51.652;4.864;2022-09-27T06:03:11;4.03;;;0.82;;
71353;SDS011;59393;51.652;4.864;2022-09-27T06:05:42;2.40;;;0.67;;
71353;SDS011;59393;51.652;4.864;2022-09-27T06:08:36;3.83;;;0.75;;
71353;SDS011;59393;51.652;4.864;2022-09-27T06:11:35;3.08;;;0.57;;
71353;SDS011;59393;51.652;4.864;2022-09-27T06:21:04;5.97;;;0.90;;
71353;SDS011;59393;51.652;4.864;2022-09-27T06:24:14;3.58;;;0.65;;
71353;SDS011;59393;51.652;4.864;2022-09-27T06:27:02;4.32;;;0.70;;
71353;SDS011;59393;51.652;4.864;2022-09-27T06:35:01;2.67;;;0.60;;
71353;SDS011;59393;51.652;4.864;2022-09-27T06:37:36;2.50;;;0.60;;
71353;SDS011;59393;51.652;4.864;2022-09-27T06:43:44;3.00;;;0.75;;
71353;SDS011;59393;51.652;4.864;2022-09-27T06:46:13;7.15;;;0.90;;
71353;SDS011;59393;51.652;4.864;2022-09-27T06:48:45;4.07;;;1.00;;
71353;SDS011;59393;51.652;4.864;2022-09-27T06:51:25;2.40;;;0.80;;
71353;SDS011;59393;51.652;4.864;2022-09-27T06:53:55;3.17;;;0.80;;
71353;SDS011;59393;51.652;4.864;2022-09-27T06:56:45;3.67;;;0.75;;
71353;SDS011;59393;51.652;4.864;2022-09-27T06:59:15;3.55;;;0.82;;
71353;SDS011;59393;51.652;4.864;2022-09-27T07:02:00;6.20;;;1.15;;
71353;SDS011;59393;51.652;4.864;2022-09-27T07:04:27;4.80;;;1.27;;
71353;SDS011;59393;51.652;4.864;2022-09-27T07:06:57;7.88;;;2.03;;
71353;SDS011;59393;51.652;4.864;2022-09-27T07:09:26;4.95;;;1.75;;
71353;SDS011;59393;51.652;4.864;2022-09-27T07:12:15;9.50;;;2.10;;
71353;SDS011;59393;51.652;4.864;2022-09-27T07:14:51;5.60;;;2.43;;
71353;SDS011;59393;51.652;4.864;2022-09-27T07:17:28;8.27;;;2.35;;
71353;SDS011;59393;51.652;4.864;2022-09-27T07:20:06;10.13;;;2.00;;
71353;SDS011;59393;51.652;4.864;2022-09-27T07:22:41;8.35;;;2.13;;
71353;SDS011;59393;51.652;4.864;2022-09-27T07:37:40;8.00;;;2.80;;
71353;SDS011;59393;51.652;4.864;2022-09-27T07:40:07;5.72;;;2.53;;
71353;SDS011;59393;51.652;4.864;2022-09-27T07:42:35;6.82;;;2.90;;
71353;SDS011;59393;51.652;4.864;2022-09-27T07:45:09;7.25;;;2.78;;
71353;SDS011;59393;51.652;4.864;2022-09-27T07:52:49;11.02;;;2.00;;
71353;SDS011;59393;51.652;4.864;2022-09-27T07:55:36;7.20;;;2.33;;
71353;SDS011;59393;51.652;4.864;2022-09-27T08:01:18;5.30;;;2.03;;
71353;SDS011;59393;51.652;4.864;2022-09-27T08:04:22;5.82;;;2.05;;
71353;SDS011;59393;51.652;4.864;2022-09-27T08:07:01;7.97;;;2.40;;
71353;SDS011;59393;51.652;4.864;2022-09-27T08:09:49;12.53;;;2.33;;
71353;SDS011;59393;51.652;4.864;2022-09-27T08:12:20;8.88;;;2.17;;
71353;SDS011;59393;51.652;4.864;2022-09-27T08:15:07;9.55;;;2.80;;
71353;SDS011;59393;51.652;4.864;2022-09-27T08:20:35;7.35;;;2.78;;
71353;SDS011;59393;51.652;4.864;2022-09-27T08:23:03;8.10;;;2.70;;
71353;SDS011;59393;51.652;4.864;2022-09-27T08:25:31;11.85;;;2.85;;
71353;SDS011;59393;51.652;4.864;2022-09-27T08:28:03;10.85;;;3.15;;
71353;SDS011;59393;51.652;4.864;2022-09-27T08:30:32;7.50;;;2.90;;
71353;SDS011;59393;51.652;4.864;2022-09-27T08:33:18;7.47;;;2.60;;
71353;SDS011;59393;51.652;4.864;2022-09-27T08:35:45;8.97;;;2.40;;
71353;SDS011;59393;51.652;4.864;2022-09-27T08:38:17;10.35;;;2.08;;
71353;SDS011;59393;51.652;4.864;2022-09-27T08:44:28;6.40;;;1.83;;
71353;SDS011;59393;51.652;4.864;2022-09-27T08:47:05;8.15;;;1.60;;
71353;SDS011;59393;51.652;4.864;2022-09-27T08:49:55;6.97;;;1.50;;
71353;SDS011;59393;51.652;4.864;2022-09-27T08:52:38;4.22;;;1.10;;
71353;SDS011;59393;51.652;4.864;2022-09-27T08:55:51;10.32;;;1.33;;
71353;SDS011;59393;51.652;4.864;2022-09-27T08:58:15;6.88;;;1.63;;
71353;SDS011;59393;51.652;4.864;2022-09-27T09:00:50;7.65;;;1.50;;
71353;SDS011;59393;51.652;4.864;2022-09-27T09:03:21;4.25;;;1.02;;
71353;SDS011;59393;51.652;4.864;2022-09-27T09:23:08;5.25;;;0.80;;
71353;SDS011;59393;51.652;4.864;2022-09-27T09:28:22;4.37;;;0.70;;
71353;SDS011;59393;51.652;4.864;2022-09-27T09:31:00;3.77;;;0.53;;
71353;SDS011;59393;51.652;4.864;2022-09-27T09:33:38;6.20;;;0.77;;
71353;SDS011;59393;51.652;4.864;2022-09-27T09:36:17;2.33;;;0.38;;
71353;SDS011;59393;51.652;4.864;2022-09-27T09:41:31;4.97;;;0.70;;
71353;SDS011;59393;51.652;4.864;2022-09-27T09:44:18;4.30;;;0.83;;
71353;SDS011;59393;51.652;4.864;2022-09-27T09:46:48;7.53;;;0.75;;
71353;SDS011;59393;51.652;4.864;2022-09-27T09:49:21;2.25;;;0.70;;
71353;SDS011;59393;51.652;4.864;2022-09-27T09:52:00;5.10;;;0.50;;
71353;SDS011;59393;51.652;4.864;2022-09-27T09:57:13;6.10;;;0.40;;
71353;SDS011;59393;51.652;4.864;2022-09-27T09:59:47;2.78;;;0.80;;
71353;SDS011;59393;51.652;4.864;2022-09-27T10:02:24;3.00;;;0.40;;
71353;SDS011;59393;51.652;4.864;2022-09-27T10:04:54;2.83;;;0.50;;
71353;SDS011;59393;51.652;4.864;2022-09-27T10:07:22;5.38;;;0.88;;
71353;SDS011;59393;51.652;4.864;2022-09-27T10:10:02;4.53;;;0.40;;
71353;SDS011;59393;51.652;4.864;2022-09-27T10:12:30;3.78;;;0.50;;
71353;SDS011;59393;51.652;4.864;2022-09-27T10:14:57;5.15;;;0.55;;
71353;SDS011;59393;51.652;4.864;2022-09-27T10:17:25;1.40;;;0.52;;
71353;SDS011;59393;51.652;4.864;2022-09-27T10:19:53;1.50;;;0.50;;
71353;SDS011;59393;51.652;4.864;2022-09-27T10:22:30;5.97;;;0.60;;
71353;SDS011;59393;51.652;4.864;2022-09-27T10:25:01;1.50;;;0.43;;
71353;SDS011;59393;51.652;4.864;2022-09-27T10:27:36;1.75;;;0.45;;
71353;SDS011;59393;51.652;4.864;2022-09-27T10:30:05;2.45;;;0.60;;
71353;SDS011;59393;51.652;4.864;2022-09-27T10:32:34;2.78;;;0.50;;
71353;SDS011;59393;51.652;4.864;2022-09-27T10:43:54;2.05;;;0.40;;
71353;SDS011;59393;51.652;4.864;2022-09-27T10:46:25;2.05;;;0.60;;
71353;SDS011;59393;51.652;4.864;2022-09-27T10:52:05;5.93;;;0.70;;
71353;SDS011;59393;51.652;4.864;2022-09-27T10:54:41;2.22;;;0.52;;
71353;SDS011;59393;51.652;4.864;2022-09-27T10:57:17;4.18;;;0.50;;
71353;SDS011;59393;51.652;4.864;2022-09-27T11:00:28;3.83;;;0.50;;
71353;SDS011;59393;51.652;4.864;2022-09-27T11:03:11;3.03;;;0.70;;
71353;SDS011;59393;51.652;4.864;2022-09-27T11:05:47;3.08;;;0.70;;
71353;SDS011;59393;51.652;4.864;2022-09-27T11:08:27;2.05;;;0.60;;
71353;SDS011;59393;51.652;4.864;2022-09-27T11:11:01;3.38;;;0.63;;
71353;SDS011;59393;51.652;4.864;2022-09-27T11:38:01;3.22;;;0.75;;
71353;SDS011;59393;51.652;4.864;2022-09-27T11:53:16;2.38;;;0.50;;
71353;SDS011;59393;51.652;4.864;2022-09-27T11:58:52;4.20;;;0.88;;
71353;SDS011;59393;51.652;4.864;2022-09-27T12:01:38;1.93;;;0.70;;
71353;SDS011;59393;51.652;4.864;2022-09-27T12:09:32;4.22;;;1.00;;
71353;SDS011;59393;51.652;4.864;2022-09-27T12:12:12;4.82;;;1.20;;
71353;SDS011;59393;51.652;4.864;2022-09-27T12:14:43;1.87;;;0.73;;
71353;SDS011;59393;51.652;4.864;2022-09-27T12:17:11;4.05;;;0.90;;
71353;SDS011;59393;51.652;4.864;2022-09-27T12:19:41;4.38;;;0.80;;
71353;SDS011;59393;51.652;4.864;2022-09-27T12:22:12;2.40;;;0.77;;
71353;SDS011;59393;51.652;4.864;2022-09-27T12:24:39;6.00;;;1.20;;
71353;SDS011;59393;51.652;4.864;2022-09-27T12:27:11;3.57;;;1.07;;
71353;SDS011;59393;51.652;4.864;2022-09-27T12:29:39;4.47;;;0.90;;
71353;SDS011;59393;51.652;4.864;2022-09-27T12:32:12;2.88;;;0.80;;
71353;SDS011;59393;51.652;4.864;2022-09-27T12:37:32;5.18;;;0.70;;
71353;SDS011;59393;51.652;4.864;2022-09-27T12:40:01;5.23;;;1.13;;
71353;SDS011;59393;51.652;4.864;2022-09-27T12:45:14;4.95;;;1.08;;
71353;SDS011;59393;51.652;4.864;2022-09-27T12:47:58;3.55;;;1.02;;
71353;SDS011;59393;51.652;4.864;2022-09-27T12:50:29;4.50;;;1.08;;
71353;SDS011;59393;51.652;4.864;2022-09-27T12:53:12;5.57;;;0.70;;
71353;SDS011;59393;51.652;4.864;2022-09-27T12:55:49;3.70;;;0.82;;
71353;SDS011;59393;51.652;4.864;2022-09-27T13:00:58;4.00;;;0.98;;
71353;SDS011;59393;51.652;4.864;2022-09-27T13:05:58;2.73;;;0.80;;
71353;SDS011;59393;51.652;4.864;2022-09-27T13:14:00;3.15;;;0.88;;
71353;SDS011;59393;51.652;4.864;2022-09-27T13:16:27;2.97;;;0.80;;
71353;SDS011;59393;51.652;4.864;2022-09-27T13:18:57;3.10;;;0.67;;
71353;SDS011;59393;51.652;4.864;2022-09-27T13:22:09;2.63;;;0.50;;
71353;SDS011;59393;51.652;4.864;2022-09-27T13:27:01;1.45;;;0.60;;
71353;SDS011;59393;51.652;4.864;2022-09-27T13:29:28;4.00;;;0.70;;
71353;SDS011;59393;51.652;4.864;2022-09-27T13:39:49;2.85;;;0.80;;
71353;SDS011;59393;51.652;4.864;2022-09-27T13:42:27;4.07;;;0.50;;
71353;SDS011;59393;51.652;4.864;2022-09-27T13:45:16;1.97;;;0.60;;
71353;SDS011;59393;51.652;4.864;2022-09-27T13:47:45;4.05;;;0.70;;
71353;SDS011;59393;51.652;4.864;2022-09-27T13:52:59;3.80;;;1.00;;
71353;SDS011;59393;51.652;4.864;2022-09-27T13:55:37;3.88;;;0.70;;
71353;SDS011;59393;51.652;4.864;2022-09-27T13:58:16;2.47;;;0.60;;
71353;SDS011;59393;51.652;4.864;2022-09-27T14:00:46;3.05;;;0.60;;
71353;SDS011;59393;51.652;4.864;2022-09-27T14:05:50;3.22;;;0.55;;
71353;SDS011;59393;51.652;4.864;2022-09-27T14:08:23;6.20;;;0.70;;
71353;SDS011;59393;51.652;4.864;2022-09-27T14:10:51;6.67;;;0.70;;
71353;SDS011;59393;51.652;4.864;2022-09-27T14:13:18;3.08;;;0.70;;
71353;SDS011;59393;51.652;4.864;2022-09-27T14:15:45;3.53;;;0.70;;
71353;SDS011;59393;51.652;4.864;2022-09-27T14:18:11;5.65;;;0.70;;
71353;SDS011;59393;51.652;4.864;2022-09-27T14:20:44;5.28;;;0.70;;
71353;SDS011;59393;51.652;4.864;2022-09-27T14:23:15;5.47;;;0.60;;
71353;SDS011;59393;51.652;4.864;2022-09-27T14:25:43;4.22;;;0.80;;
71353;SDS011;59393;51.652;4.864;2022-09-27T14:28:26;3.45;;;0.90;;
71353;SDS011;59393;51.652;4.864;2022-09-27T14:33:32;3.75;;;0.57;;
71353;SDS011;59393;51.652;4.864;2022-09-27T14:35:59;3.87;;;0.73;;
71353;SDS011;59393;51.652;4.864;2022-09-27T14:38:44;4.22;;;0.95;;
71353;SDS011;59393;51.652;4.864;2022-09-27T14:41:12;4.40;;;0.80;;
71353;SDS011;59393;51.652;4.864;2022-09-27T14:43:43;3.60;;;0.85;;
71353;SDS011;59393;51.652;4.864;2022-09-27T14:46:23;3.97;;;1.10;;
71353;SDS011;59393;51.652;4.864;2022-09-27T14:48:51;5.37;;;0.70;;
71353;SDS011;59393;51.652;4.864;2022-09-27T14:51:19;6.43;;;0.70;;
71353;SDS011;59393;51.652;4.864;2022-09-27T14:53:52;4.30;;;0.80;;
71353;SDS011;59393;51.652;4.864;2022-09-27T14:56:26;4.20;;;0.90;;
71353;SDS011;59393;51.652;4.864;2022-09-27T14:58:55;8.05;;;0.77;;
71353;SDS011;59393;51.652;4.864;2022-09-27T15:01:26;2.17;;;0.70;;
71353;SDS011;59393;51.652;4.864;2022-09-27T15:03:53;3.35;;;0.70;;
71353;SDS011;59393;51.652;4.864;2022-09-27T15:06:19;2.50;;;0.70;;
71353;SDS011;59393;51.652;4.864;2022-09-27T15:08:45;9.00;;;0.90;;
71353;SDS011;59393;51.652;4.864;2022-09-27T15:11:13;2.97;;;0.50;;
71353;SDS011;59393;51.652;4.864;2022-09-27T15:13:41;3.90;;;1.07;;
71353;SDS011;59393;51.652;4.864;2022-09-27T15:16:12;1.63;;;0.60;;
71353;SDS011;59393;51.652;4.864;2022-09-27T15:18:42;3.72;;;0.80;;
71353;SDS011;59393;51.652;4.864;2022-09-27T15:21:10;3.53;;;0.90;;
71353;SDS011;59393;51.652;4.864;2022-09-27T15:23:39;2.92;;;0.50;;
71353;SDS011;59393;51.652;4.864;2022-09-27T15:26:07;2.97;;;0.60;;
71353;SDS011;59393;51.652;4.864;2022-09-27T15:28:35;1.25;;;0.38;;
71353;SDS011;59393;51.652;4.864;2022-09-27T15:31:05;2.38;;;0.65;;
71353;SDS011;59393;51.652;4.864;2022-09-27T15:33:31;3.33;;;0.70;;
71353;SDS011;59393;51.652;4.864;2022-09-27T15:36:00;2.78;;;0.55;;
71353;SDS011;59393;51.652;4.864;2022-09-27T15:38:31;0.70;;;0.40;;
71353;SDS011;59393;51.652;4.864;2022-09-27T15:41:16;1.10;;;0.50;;
71353;SDS011;59393;51.652;4.864;2022-09-27T15:43:46;1.02;;;0.40;;
71353;SDS011;59393;51.652;4.864;2022-09-27T15:51:43;1.83;;;0.53;;
71353;SDS011;59393;51.652;4.864;2022-09-27T15:54:09;3.38;;;0.47;;
71353;SDS011;59393;51.652;4.864;2022-09-27T15:56:36;2.65;;;0.57;;
71353;SDS011;59393;51.652;4.864;2022-09-27T15:59:02;1.73;;;0.60;;
71353;SDS011;59393;51.652;4.864;2022-09-27T16:01:28;5.60;;;1.08;;
71353;SDS011;59393;51.652;4.864;2022-09-27T16:03:56;3.87;;;0.80;;
71353;SDS011;59393;51.652;4.864;2022-09-27T16:06:22;7.28;;;0.98;;
71353;SDS011;59393;51.652;4.864;2022-09-27T16:08:50;6.20;;;0.85;;
71353;SDS011;59393;51.652;4.864;2022-09-27T16:11:16;2.60;;;0.95;;
71353;SDS011;59393;51.652;4.864;2022-09-27T16:13:42;4.32;;;1.20;;
71353;SDS011;59393;51.652;4.864;2022-09-27T16:16:16;3.30;;;1.00;;
71353;SDS011;59393;51.652;4.864;2022-09-27T16:18:46;2.80;;;1.10;;
71353;SDS011;59393;51.652;4.864;2022-09-27T16:21:13;5.00;;;0.98;;
71353;SDS011;59393;51.652;4.864;2022-09-27T16:23:39;5.20;;;1.10;;
71353;SDS011;59393;51.652;4.864;2022-09-27T16:26:05;7.15;;;1.35;;
71353;SDS011;59393;51.652;4.864;2022-09-27T16:28:33;5.47;;;1.40;;
71353;SDS011;59393;51.652;4.864;2022-09-27T16:31:00;6.47;;;1.10;;
71353;SDS011;59393;51.652;4.864;2022-09-27T16:33:27;11.82;;;1.55;;
71353;SDS011;59393;51.652;4.864;2022-09-27T16:35:53;7.13;;;1.48;;
71353;SDS011;59393;51.652;4.864;2022-09-27T16:38:19;7.97;;;1.70;;
71353;SDS011;59393;51.652;4.864;2022-09-27T16:40:45;4.43;;;1.17;;
71353;SDS011;59393;51.652;4.864;2022-09-27T16:43:11;5.28;;;1.00;;
71353;SDS011;59393;51.652;4.864;2022-09-27T16:45:37;5.80;;;1.40;;
71353;SDS011;59393;51.652;4.864;2022-09-27T16:48:05;6.07;;;1.33;;
71353;SDS011;59393;51.652;4.864;2022-09-27T16:50:31;7.53;;;1.40;;
71353;SDS011;59393;51.652;4.864;2022-09-27T16:53:15;3.43;;;1.20;;
71353;SDS011;59393;51.652;4.864;2022-09-27T16:55:43;4.70;;;1.58;;
71353;SDS011;59393;51.652;4.864;2022-09-27T16:58:10;5.53;;;1.38;;
71353;SDS011;59393;51.652;4.864;2022-09-27T17:00:36;3.72;;;1.20;;
71353;SDS011;59393;51.652;4.864;2022-09-27T17:03:11;10.60;;;2.00;;
71353;SDS011;59393;51.652;4.864;2022-09-27T17:05:39;7.07;;;1.90;;
71353;SDS011;59393;51.652;4.864;2022-09-27T17:08:07;8.95;;;1.75;;
71353;SDS011;59393;51.652;4.864;2022-09-27T17:10:33;7.05;;;2.47;;
71353;SDS011;59393;51.652;4.864;2022-09-27T17:12:59;9.48;;;2.40;;
71353;SDS011;59393;51.652;4.864;2022-09-27T17:15:25;6.50;;;1.67;;
71353;SDS011;59393;51.652;4.864;2022-09-27T17:17:55;10.33;;;1.50;;
71353;SDS011;59393;51.652;4.864;2022-09-27T17:20:21;7.20;;;1.83;;
71353;SDS011;59393;51.652;4.864;2022-09-27T17:22:50;7.38;;;1.70;;
71353;SDS011;59393;51.652;4.864;2022-09-27T17:25:19;9.48;;;1.90;;
71353;SDS011;59393;51.652;4.864;2022-09-27T17:27:45;5.78;;;2.00;;
71353;SDS011;59393;51.652;4.864;2022-09-27T17:30:15;6.77;;;1.70;;
71353;SDS011;59393;51.652;4.864;2022-09-27T17:32:46;9.40;;;1.98;;
71353;SDS011;59393;51.652;4.864;2022-09-27T17:35:13;7.13;;;2.13;;
71353;SDS011;59393;51.652;4.864;2022-09-27T17:37:39;8.90;;;2.30;;
71353;SDS011;59393;51.652;4.864;2022-09-27T17:40:07;7.55;;;1.92;;
71353;SDS011;59393;51.652;4.864;2022-09-27T17:42:34;5.63;;;1.90;;
71353;SDS011;59393;51.652;4.864;2022-09-27T17:45:02;10.30;;;2.08;;
71353;SDS011;59393;51.652;4.864;2022-09-27T17:47:28;11.48;;;2.42;;
71353;SDS011;59393;51.652;4.864;2022-09-27T17:50:12;8.52;;;2.67;;
71353;SDS011;59393;51.652;4.864;2022-09-27T17:52:55;9.38;;;2.85;;
71353;SDS011;59393;51.652;4.864;2022-09-27T17:55:21;5.17;;;2.00;;
71353;SDS011;59393;51.652;4.864;2022-09-27T17:57:48;8.32;;;2.10;;
71353;SDS011;59393;51.652;4.864;2022-09-27T18:00:15;7.78;;;2.28;;
71353;SDS011;59393;51.652;4.864;2022-09-27T18:02:43;4.93;;;1.80;;
71353;SDS011;59393;51.652;4.864;2022-09-27T18:05:12;7.13;;;2.17;;
71353;SDS011;59393;51.652;4.864;2022-09-27T18:07:45;6.40;;;1.55;;
71353;SDS011;59393;51.652;4.864;2022-09-27T18:10:14;4.78;;;1.52;;
71353;SDS011;59393;51.652;4.864;2022-09-27T18:12:41;8.88;;;2.10;;
71353;SDS011;59393;51.652;4.864;2022-09-27T18:15:07;6.28;;;1.70;;
71353;SDS011;59393;51.652;4.864;2022-09-27T18:17:33;4.43;;;1.50;;
71353;SDS011;59393;51.652;4.864;2022-09-27T18:20:03;4.27;;;1.50;;
71353;SDS011;59393;51.652;4.864;2022-09-27T18:22:30;7.70;;;1.75;;
71353;SDS011;59393;51.652;4.864;2022-09-27T18:24:57;4.35;;;1.55;;
71353;SDS011;59393;51.652;4.864;2022-09-27T18:27:25;3.97;;;1.52;;
71353;SDS011;59393;51.652;4.864;2022-09-27T18:29:51;9.60;;;2.10;;
71353;SDS011;59393;51.652;4.864;2022-09-27T18:32:28;6.47;;;1.93;;
71353;SDS011;59393;51.652;4.864;2022-09-27T18:34:55;5.38;;;1.80;;
71353;SDS011;59393;51.652;4.864;2022-09-27T18:37:22;5.35;;;1.85;;
71353;SDS011;59393;51.652;4.864;2022-09-27T18:39:52;8.20;;;2.13;;
71353;SDS011;59393;51.652;4.864;2022-09-27T18:42:19;6.03;;;2.40;;
71353;SDS011;59393;51.652;4.864;2022-09-27T18:44:48;6.70;;;2.27;;
71353;SDS011;59393;51.652;4.864;2022-09-27T18:47:14;8.13;;;2.13;;
71353;SDS011;59393;51.652;4.864;2022-09-27T18:49:42;6.28;;;2.08;;
71353;SDS011;59393;51.652;4.864;2022-09-27T18:52:09;6.75;;;2.17;;
71353;SDS011;59393;51.652;4.864;2022-09-27T18:54:36;8.27;;;2.40;;
71353;SDS011;59393;51.652;4.864;2022-09-27T18:57:04;7.47;;;1.90;;
71353;SDS011;59393;51.652;4.864;2022-09-27T18:59:35;6.88;;;2.47;;
71353;SDS011;59393;51.652;4.864;2022-09-27T19:02:02;8.32;;;2.47;;
71353;SDS011;59393;51.652;4.864;2022-09-27T19:04:28;6.13;;;2.38;;
71353;SDS011;59393;51.652;4.864;2022-09-27T19:06:54;7.50;;;2.40;;
71353;SDS011;59393;51.652;4.864;2022-09-27T19:09:23;6.00;;;2.17;;
71353;SDS011;59393;51.652;4.864;2022-09-27T19:11:51;11.65;;;2.83;;
71353;SDS011;59393;51.652;4.864;2022-09-27T19:14:18;6.10;;;2.38;;
71353;SDS011;59393;51.652;4.864;2022-09-27T19:16:47;10.45;;;2.67;;
71353;SDS011;59393;51.652;4.864;2022-09-27T19:19:13;7.20;;;2.53;;
71353;SDS011;59393;51.652;4.864;2022-09-27T19:21:40;7.20;;;2.50;;
71353;SDS011;59393;51.652;4.864;2022-09-27T19:24:06;11.60;;;2.28;;
71353;SDS011;59393;51.652;4.864;2022-09-27T19:26:33;7.15;;;2.50;;
71353;SDS011;59393;51.652;4.864;2022-09-27T19:29:02;6.85;;;2.58;;
71353;SDS011;59393;51.652;4.864;2022-09-27T19:31:32;6.50;;;2.55;;
71353;SDS011;59393;51.652;4.864;2022-09-27T19:33:59;11.40;;;2.63;;
71353;SDS011;59393;51.652;4.864;2022-09-27T19:36:25;8.40;;;3.28;;
71353;SDS011;59393;51.652;4.864;2022-09-27T19:38:51;8.73;;;3.20;;
71353;SDS011;59393;51.652;4.864;2022-09-27T19:41:19;9.35;;;3.78;;
71353;SDS011;59393;51.652;4.864;2022-09-27T19:43:51;8.00;;;3.17;;
71353;SDS011;59393;51.652;4.864;2022-09-27T19:46:18;7.70;;;3.40;;
71353;SDS011;59393;51.652;4.864;2022-09-27T19:48:45;9.00;;;3.42;;
71353;SDS011;59393;51.652;4.864;2022-09-27T19:51:12;12.90;;;3.97;;
71353;SDS011;59393;51.652;4.864;2022-09-27T19:53:39;8.05;;;3.88;;
71353;SDS011;59393;51.652;4.864;2022-09-27T19:56:06;6.78;;;3.42;;
71353;SDS011;59393;51.652;4.864;2022-09-27T19:58:34;7.75;;;3.67;;
71353;SDS011;59393;51.652;4.864;2022-09-27T20:01:04;12.23;;;3.85;;
71353;SDS011;59393;51.652;4.864;2022-09-27T20:03:32;6.82;;;3.35;;
71353;SDS011;59393;51.652;4.864;2022-09-27T20:05:59;9.50;;;3.15;;
71353;SDS011;59393;51.652;4.864;2022-09-27T20:08:28;6.97;;;2.85;;